sensor_id;sensor_type;location;lat;lon;timestamp;temperature;humidity
24103;DHT22;12278;53.058;9.028;2023-02-28T00:03:58;3.60;99.90
24103;DHT22;12278;53.058;9.028;2023-02-28T00:07:59;3.50;99.90
24103;DHT22;12278;53.058;9.028;2023-02-28T00:11:59;3.50;99.90
24103;DHT22;12278;53.058;9.028;2023-02-28T00:16:02;3.40;99.90
24103;DHT22;12278;53.058;9.028;2023-02-28T00:20:05;3.30;99.90
24103;DHT22;12278;53.058;9.028;2023-02-28T00:24:22;3.20;99.90
24103;DHT22;12278;53.058;9.028;2023-02-28T00:28:23;3.20;99.90
24103;DHT22;12278;53.058;9.028;2023-02-28T00:32:24;3.30;99.90
24103;DHT22;12278;53.058;9.028;2023-02-28T00:36:25;3.30;99.90
24103;DHT22;12278;53.058;9.028;2023-02-28T00:40:33;3.10;99.90
24103;DHT22;12278;53.058;9.028;2023-02-28T00:44:33;3.00;99.90
24103;DHT22;12278;53.058;9.028;2023-02-28T00:48:34;2.90;99.90
24103;DHT22;12278;53.058;9.028;2023-02-28T00:52:35;2.70;99.90
24103;DHT22;12278;53.058;9.028;2023-02-28T00:56:35;2.80;99.90
24103;DHT22;12278;53.058;9.028;2023-02-28T01:00:42;2.70;99.90
24103;DHT22;12278;53.058;9.028;2023-02-28T01:04:43;2.70;99.90
24103;DHT22;12278;53.058;9.028;2023-02-28T01:08:43;2.60;99.90
24103;DHT22;12278;53.058;9.028;2023-02-28T01:12:47;2.50;99.90
24103;DHT22;12278;53.058;9.028;2023-02-28T01:16:51;2.40;99.90
24103;DHT22;12278;53.058;9.028;2023-02-28T01:20:52;2.30;99.90
24103;DHT22;12278;53.058;9.028;2023-02-28T01:24:53;2.30;99.90
24103;DHT22;12278;53.058;9.028;2023-02-28T01:28:54;2.20;99.90
24103;DHT22;12278;53.058;9.028;2023-02-28T01:32:55;2.30;99.90
24103;DHT22;12278;53.058;9.028;2023-02-28T01:36:55;2.20;99.90
24103;DHT22;12278;53.058;9.028;2023-02-28T01:40:59;2.20;99.90
24103;DHT22;12278;53.058;9.028;2023-02-28T01:49:21;2.40;99.90
24103;DHT22;12278;53.058;9.028;2023-02-28T01:53:30;2.40;99.90
24103;DHT22;12278;53.058;9.028;2023-02-28T01:57:36;2.50;99.90
24103;DHT22;12278;53.058;9.028;2023-02-28T02:01:41;2.50;99.90
24103;DHT22;12278;53.058;9.028;2023-02-28T02:05:42;2.40;99.90
24103;DHT22;12278;53.058;9.028;2023-02-28T02:14:54;2.30;99.90
24103;DHT22;12278;53.058;9.028;2023-02-28T02:45:46;1.60;99.90
24103;DHT22;12278;53.058;9.028;2023-02-28T02:49:51;1.60;99.90
24103;DHT22;12278;53.058;9.028;2023-02-28T02:54:21;1.50;99.90
24103;DHT22;12278;53.058;9.028;2023-02-28T02:58:26;1.40;99.90
24103;DHT22;12278;53.058;9.028;2023-02-28T03:02:29;1.20;99.90
24103;DHT22;12278;53.058;9.028;2023-02-28T03:06:34;1.30;99.90
24103;DHT22;12278;53.058;9.028;2023-02-28T03:10:41;1.30;99.90
24103;DHT22;12278;53.058;9.028;2023-02-28T03:15:24;1.20;99.90
24103;DHT22;12278;53.058;9.028;2023-02-28T03:19:31;1.00;99.90
24103;DHT22;12278;53.058;9.028;2023-02-28T03:32:28;0.80;99.90
24103;DHT22;12278;53.058;9.028;2023-02-28T03:36:38;0.80;99.90
24103;DHT22;12278;53.058;9.028;2023-02-28T03:40:49;0.60;99.90
24103;DHT22;12278;53.058;9.028;2023-02-28T03:49:18;0.60;99.90
24103;DHT22;12278;53.058;9.028;2023-02-28T03:53:39;0.70;99.90
24103;DHT22;12278;53.058;9.028;2023-02-28T03:58:01;0.70;99.90
24103;DHT22;12278;53.058;9.028;2023-02-28T04:02:05;0.80;99.90
24103;DHT22;12278;53.058;9.028;2023-02-28T04:06:08;0.60;99.90
24103;DHT22;12278;53.058;9.028;2023-02-28T04:10:21;0.60;99.90
24103;DHT22;12278;53.058;9.028;2023-02-28T04:14:22;0.50;99.90
24103;DHT22;12278;53.058;9.028;2023-02-28T04:18:23;0.50;99.90
24103;DHT22;12278;53.058;9.028;2023-02-28T04:22:25;0.40;99.90
24103;DHT22;12278;53.058;9.028;2023-02-28T04:26:36;0.10;99.90
24103;DHT22;12278;53.058;9.028;2023-02-28T04:30:37;0.20;99.90
24103;DHT22;12278;53.058;9.028;2023-02-28T04:34:38;0.20;99.90
24103;DHT22;12278;53.058;9.028;2023-02-28T04:38:39;0.20;99.90
24103;DHT22;12278;53.058;9.028;2023-02-28T04:42:40;0.20;99.90
24103;DHT22;12278;53.058;9.028;2023-02-28T04:46:41;0.10;99.90
24103;DHT22;12278;53.058;9.028;2023-02-28T04:50:43;0.20;99.90
24103;DHT22;12278;53.058;9.028;2023-02-28T04:54:44;0.00;99.90
24103;DHT22;12278;53.058;9.028;2023-02-28T04:58:45;0.00;99.90
24103;DHT22;12278;53.058;9.028;2023-02-28T05:02:46;-0.10;99.90
24103;DHT22;12278;53.058;9.028;2023-02-28T05:06:47;0.00;99.90
24103;DHT22;12278;53.058;9.028;2023-02-28T05:10:47;0.00;99.90
24103;DHT22;12278;53.058;9.028;2023-02-28T05:14:48;0.00;99.90
24103;DHT22;12278;53.058;9.028;2023-02-28T05:18:49;-0.10;99.90
24103;DHT22;12278;53.058;9.028;2023-02-28T05:23:00;-0.20;99.90
24103;DHT22;12278;53.058;9.028;2023-02-28T05:27:01;-0.20;99.90
24103;DHT22;12278;53.058;9.028;2023-02-28T05:31:02;-0.30;99.90
24103;DHT22;12278;53.058;9.028;2023-02-28T05:35:03;-0.30;99.90
24103;DHT22;12278;53.058;9.028;2023-02-28T05:39:09;-0.30;99.90
24103;DHT22;12278;53.058;9.028;2023-02-28T05:43:32;-0.40;99.90
24103;DHT22;12278;53.058;9.028;2023-02-28T05:47:34;-0.50;99.90
24103;DHT22;12278;53.058;9.028;2023-02-28T05:51:40;-0.60;99.90
24103;DHT22;12278;53.058;9.028;2023-02-28T05:55:41;-0.60;99.90
24103;DHT22;12278;53.058;9.028;2023-02-28T05:59:41;-0.60;99.90
24103;DHT22;12278;53.058;9.028;2023-02-28T06:03:51;-0.50;99.90
24103;DHT22;12278;53.058;9.028;2023-02-28T06:07:52;-0.40;99.90
24103;DHT22;12278;53.058;9.028;2023-02-28T06:12:01;-0.40;99.90
24103;DHT22;12278;53.058;9.028;2023-02-28T06:16:04;-0.40;99.90
24103;DHT22;12278;53.058;9.028;2023-02-28T06:20:05;-0.50;99.90
24103;DHT22;12278;53.058;9.028;2023-02-28T06:24:07;-0.40;99.90
24103;DHT22;12278;53.058;9.028;2023-02-28T06:28:15;-0.30;99.90
24103;DHT22;12278;53.058;9.028;2023-02-28T06:32:18;-0.20;99.90
24103;DHT22;12278;53.058;9.028;2023-02-28T06:36:18;-0.30;99.90
24103;DHT22;12278;53.058;9.028;2023-02-28T06:40:19;-0.20;99.90
24103;DHT22;12278;53.058;9.028;2023-02-28T06:44:21;-0.40;99.90
24103;DHT22;12278;53.058;9.028;2023-02-28T06:48:22;-0.10;99.90
24103;DHT22;12278;53.058;9.028;2023-02-28T06:52:23;0.50;99.90
24103;DHT22;12278;53.058;9.028;2023-02-28T06:56:23;0.80;99.90
24103;DHT22;12278;53.058;9.028;2023-02-28T07:00:24;0.70;99.90
24103;DHT22;12278;53.058;9.028;2023-02-28T07:04:25;0.40;99.90
24103;DHT22;12278;53.058;9.028;2023-02-28T07:08:26;0.90;99.90
24103;DHT22;12278;53.058;9.028;2023-02-28T07:12:27;1.50;99.90
24103;DHT22;12278;53.058;9.028;2023-02-28T07:16:27;1.90;99.90
24103;DHT22;12278;53.058;9.028;2023-02-28T07:20:28;1.90;99.90
24103;DHT22;12278;53.058;9.028;2023-02-28T07:24:29;2.30;99.90
24103;DHT22;12278;53.058;9.028;2023-02-28T07:28:30;2.50;99.90
24103;DHT22;12278;53.058;9.028;2023-02-28T07:32:31;2.50;99.90
24103;DHT22;12278;53.058;9.028;2023-02-28T07:36:31;3.10;99.90
24103;DHT22;12278;53.058;9.028;2023-02-28T07:40:32;3.60;99.90
24103;DHT22;12278;53.058;9.028;2023-02-28T07:44:33;3.30;99.90
24103;DHT22;12278;53.058;9.028;2023-02-28T07:48:34;3.00;99.90
24103;DHT22;12278;53.058;9.028;2023-02-28T07:52:36;3.20;99.90
24103;DHT22;12278;53.058;9.028;2023-02-28T07:56:37;3.50;99.90
24103;DHT22;12278;53.058;9.028;2023-02-28T08:00:37;3.10;99.90
24103;DHT22;12278;53.058;9.028;2023-02-28T08:04:38;3.80;99.90
24103;DHT22;12278;53.058;9.028;2023-02-28T08:08:39;4.40;99.90
24103;DHT22;12278;53.058;9.028;2023-02-28T08:12:39;4.90;99.90
24103;DHT22;12278;53.058;9.028;2023-02-28T08:16:40;5.70;99.90
24103;DHT22;12278;53.058;9.028;2023-02-28T08:20:43;6.90;99.90
24103;DHT22;12278;53.058;9.028;2023-02-28T08:24:43;7.60;99.90
24103;DHT22;12278;53.058;9.028;2023-02-28T08:28:45;8.20;99.90
24103;DHT22;12278;53.058;9.028;2023-02-28T08:32:46;9.30;99.90
24103;DHT22;12278;53.058;9.028;2023-02-28T08:36:46;8.80;99.90
24103;DHT22;12278;53.058;9.028;2023-02-28T08:40:47;8.90;99.80
24103;DHT22;12278;53.058;9.028;2023-02-28T08:44:48;8.00;99.90
24103;DHT22;12278;53.058;9.028;2023-02-28T08:48:52;7.90;99.90
24103;DHT22;12278;53.058;9.028;2023-02-28T08:52:53;7.40;99.90
24103;DHT22;12278;53.058;9.028;2023-02-28T08:56:53;7.30;99.90
24103;DHT22;12278;53.058;9.028;2023-02-28T09:00:54;7.10;99.90
24103;DHT22;12278;53.058;9.028;2023-02-28T09:04:55;7.60;99.90
24103;DHT22;12278;53.058;9.028;2023-02-28T09:08:57;7.00;99.90
24103;DHT22;12278;53.058;9.028;2023-02-28T09:12:58;7.20;99.90
24103;DHT22;12278;53.058;9.028;2023-02-28T09:16:59;7.00;99.90
24103;DHT22;12278;53.058;9.028;2023-02-28T09:21:15;7.50;99.90
24103;DHT22;12278;53.058;9.028;2023-02-28T09:25:16;7.10;99.90
24103;DHT22;12278;53.058;9.028;2023-02-28T09:29:17;7.80;99.90
24103;DHT22;12278;53.058;9.028;2023-02-28T09:33:18;8.30;99.90
24103;DHT22;12278;53.058;9.028;2023-02-28T09:37:21;9.00;99.80
24103;DHT22;12278;53.058;9.028;2023-02-28T09:41:26;9.20;96.40
24103;DHT22;12278;53.058;9.028;2023-02-28T09:45:36;9.10;94.50
24103;DHT22;12278;53.058;9.028;2023-02-28T09:49:44;8.20;93.10
24103;DHT22;12278;53.058;9.028;2023-02-28T09:53:46;8.80;95.00
24103;DHT22;12278;53.058;9.028;2023-02-28T09:57:47;9.50;95.60
24103;DHT22;12278;53.058;9.028;2023-02-28T10:06:19;10.30;93.00
24103;DHT22;12278;53.058;9.028;2023-02-28T10:14:34;9.80;91.80
24103;DHT22;12278;53.058;9.028;2023-02-28T10:18:47;9.00;93.10
24103;DHT22;12278;53.058;9.028;2023-02-28T10:23:02;9.50;95.10
24103;DHT22;12278;53.058;9.028;2023-02-28T10:27:17;9.50;93.90
24103;DHT22;12278;53.058;9.028;2023-02-28T10:31:19;9.80;94.80
24103;DHT22;12278;53.058;9.028;2023-02-28T10:35:25;10.00;93.10
24103;DHT22;12278;53.058;9.028;2023-02-28T10:43:38;10.40;93.30
24103;DHT22;12278;53.058;9.028;2023-02-28T10:48:03;10.60;91.20
24103;DHT22;12278;53.058;9.028;2023-02-28T10:52:08;10.70;90.60
24103;DHT22;12278;53.058;9.028;2023-02-28T11:00:22;10.30;90.90
24103;DHT22;12278;53.058;9.028;2023-02-28T11:08:32;11.00;90.20
24103;DHT22;12278;53.058;9.028;2023-02-28T11:12:38;10.80;90.10
24103;DHT22;12278;53.058;9.028;2023-02-28T11:16:41;11.00;90.40
24103;DHT22;12278;53.058;9.028;2023-02-28T11:20:42;11.10;90.90
24103;DHT22;12278;53.058;9.028;2023-02-28T11:24:52;11.50;90.90
24103;DHT22;12278;53.058;9.028;2023-02-28T11:29:17;12.00;90.00
24103;DHT22;12278;53.058;9.028;2023-02-28T11:33:23;12.40;90.50
24103;DHT22;12278;53.058;9.028;2023-02-28T11:37:23;13.10;86.80
24103;DHT22;12278;53.058;9.028;2023-02-28T11:42:16;12.70;82.00
24103;DHT22;12278;53.058;9.028;2023-02-28T12:07:11;14.50;70.70
24103;DHT22;12278;53.058;9.028;2023-02-28T12:15:57;14.20;71.10
24103;DHT22;12278;53.058;9.028;2023-02-28T12:20:26;12.80;73.80
24103;DHT22;12278;53.058;9.028;2023-02-28T12:24:46;13.20;75.50
24103;DHT22;12278;53.058;9.028;2023-02-28T12:29:04;13.10;76.20
24103;DHT22;12278;53.058;9.028;2023-02-28T12:33:12;13.70;73.00
24103;DHT22;12278;53.058;9.028;2023-02-28T12:37:19;13.50;75.60
24103;DHT22;12278;53.058;9.028;2023-02-28T12:41:29;13.70;74.90
24103;DHT22;12278;53.058;9.028;2023-02-28T13:06:52;12.80;75.10
24103;DHT22;12278;53.058;9.028;2023-02-28T13:10:54;12.20;74.00
24103;DHT22;12278;53.058;9.028;2023-02-28T13:19:31;11.80;71.60
24103;DHT22;12278;53.058;9.028;2023-02-28T13:23:55;12.10;73.30
24103;DHT22;12278;53.058;9.028;2023-02-28T13:28:01;12.30;70.20
24103;DHT22;12278;53.058;9.028;2023-02-28T13:40:32;13.70;67.10
24103;DHT22;12278;53.058;9.028;2023-02-28T13:53:34;15.60;64.00
24103;DHT22;12278;53.058;9.028;2023-02-28T14:06:46;15.70;57.50
24103;DHT22;12278;53.058;9.028;2023-02-28T14:10:49;16.20;54.40
24103;DHT22;12278;53.058;9.028;2023-02-28T14:19:00;18.30;56.00
24103;DHT22;12278;53.058;9.028;2023-02-28T14:27:50;19.20;52.50
24103;DHT22;12278;53.058;9.028;2023-02-28T14:32:28;18.50;51.40
24103;DHT22;12278;53.058;9.028;2023-02-28T14:36:35;18.60;51.90
24103;DHT22;12278;53.058;9.028;2023-02-28T14:40:38;19.80;49.20
24103;DHT22;12278;53.058;9.028;2023-02-28T14:44:39;20.30;48.60
24103;DHT22;12278;53.058;9.028;2023-02-28T14:48:40;19.70;49.20
24103;DHT22;12278;53.058;9.028;2023-02-28T14:52:43;18.90;49.30
24103;DHT22;12278;53.058;9.028;2023-02-28T14:56:43;19.40;50.10
24103;DHT22;12278;53.058;9.028;2023-02-28T15:00:51;20.00;49.20
24103;DHT22;12278;53.058;9.028;2023-02-28T15:05:00;20.10;48.00
24103;DHT22;12278;53.058;9.028;2023-02-28T15:09:18;20.30;47.00
24103;DHT22;12278;53.058;9.028;2023-02-28T15:13:20;19.90;46.40
24103;DHT22;12278;53.058;9.028;2023-02-28T15:17:23;18.90;45.50
24103;DHT22;12278;53.058;9.028;2023-02-28T15:21:29;18.70;46.40
24103;DHT22;12278;53.058;9.028;2023-02-28T15:25:30;18.40;48.30
24103;DHT22;12278;53.058;9.028;2023-02-28T15:29:37;18.50;48.10
24103;DHT22;12278;53.058;9.028;2023-02-28T15:33:55;18.20;49.10
24103;DHT22;12278;53.058;9.028;2023-02-28T15:38:00;17.40;48.90
24103;DHT22;12278;53.058;9.028;2023-02-28T15:42:11;16.10;49.50
24103;DHT22;12278;53.058;9.028;2023-02-28T15:46:13;16.40;51.60
24103;DHT22;12278;53.058;9.028;2023-02-28T15:50:16;16.90;51.40
24103;DHT22;12278;53.058;9.028;2023-02-28T15:54:24;16.80;51.00
24103;DHT22;12278;53.058;9.028;2023-02-28T15:58:28;16.60;51.20
24103;DHT22;12278;53.058;9.028;2023-02-28T16:02:36;15.90;53.70
24103;DHT22;12278;53.058;9.028;2023-02-28T16:06:54;15.80;53.10
24103;DHT22;12278;53.058;9.028;2023-02-28T16:11:00;13.30;54.50
24103;DHT22;12278;53.058;9.028;2023-02-28T16:15:02;11.40;61.40
24103;DHT22;12278;53.058;9.028;2023-02-28T16:19:09;9.90;72.60
24103;DHT22;12278;53.058;9.028;2023-02-28T16:23:09;8.80;79.70
24103;DHT22;12278;53.058;9.028;2023-02-28T16:27:16;8.30;82.90
24103;DHT22;12278;53.058;9.028;2023-02-28T16:31:17;7.60;87.80
24103;DHT22;12278;53.058;9.028;2023-02-28T16:35:18;7.20;91.80
24103;DHT22;12278;53.058;9.028;2023-02-28T16:39:19;7.00;93.50
24103;DHT22;12278;53.058;9.028;2023-02-28T16:43:23;6.80;95.70
24103;DHT22;12278;53.058;9.028;2023-02-28T16:47:24;6.60;95.80
24103;DHT22;12278;53.058;9.028;2023-02-28T16:51:28;6.30;96.50
24103;DHT22;12278;53.058;9.028;2023-02-28T16:55:28;6.20;97.60
24103;DHT22;12278;53.058;9.028;2023-02-28T16:59:29;6.20;99.60
24103;DHT22;12278;53.058;9.028;2023-02-28T17:03:29;6.10;99.90
24103;DHT22;12278;53.058;9.028;2023-02-28T17:07:30;5.90;99.90
24103;DHT22;12278;53.058;9.028;2023-02-28T17:11:30;5.70;99.90
24103;DHT22;12278;53.058;9.028;2023-02-28T17:15:31;5.60;99.90
24103;DHT22;12278;53.058;9.028;2023-02-28T17:19:32;5.30;99.90
24103;DHT22;12278;53.058;9.028;2023-02-28T17:23:33;5.10;99.90
24103;DHT22;12278;53.058;9.028;2023-02-28T17:27:36;4.90;99.90
24103;DHT22;12278;53.058;9.028;2023-02-28T17:31:36;4.80;99.90
24103;DHT22;12278;53.058;9.028;2023-02-28T17:35:39;4.60;99.90
24103;DHT22;12278;53.058;9.028;2023-02-28T17:39:39;4.50;99.90
24103;DHT22;12278;53.058;9.028;2023-02-28T17:43:40;4.40;99.90
24103;DHT22;12278;53.058;9.028;2023-02-28T17:47:43;4.30;99.90
24103;DHT22;12278;53.058;9.028;2023-02-28T17:51:46;4.10;99.90
24103;DHT22;12278;53.058;9.028;2023-02-28T17:55:47;4.00;99.90
24103;DHT22;12278;53.058;9.028;2023-02-28T17:59:48;3.80;99.90
24103;DHT22;12278;53.058;9.028;2023-02-28T18:03:48;3.70;99.90
24103;DHT22;12278;53.058;9.028;2023-02-28T18:07:56;3.70;99.90
24103;DHT22;12278;53.058;9.028;2023-02-28T18:11:57;3.50;99.90
24103;DHT22;12278;53.058;9.028;2023-02-28T18:15:57;3.50;99.90
24103;DHT22;12278;53.058;9.028;2023-02-28T18:19:58;3.40;99.90
24103;DHT22;12278;53.058;9.028;2023-02-28T18:23:59;3.30;99.90
24103;DHT22;12278;53.058;9.028;2023-02-28T18:28:00;3.10;99.90
24103;DHT22;12278;53.058;9.028;2023-02-28T18:32:01;3.00;99.90
24103;DHT22;12278;53.058;9.028;2023-02-28T18:36:04;2.80;99.90
24103;DHT22;12278;53.058;9.028;2023-02-28T18:40:06;2.70;99.90
24103;DHT22;12278;53.058;9.028;2023-02-28T18:44:07;2.70;99.90
24103;DHT22;12278;53.058;9.028;2023-02-28T18:48:07;2.60;99.90
24103;DHT22;12278;53.058;9.028;2023-02-28T18:52:08;2.60;99.90
24103;DHT22;12278;53.058;9.028;2023-02-28T18:56:11;2.50;99.90
24103;DHT22;12278;53.058;9.028;2023-02-28T19:00:15;2.60;99.90
24103;DHT22;12278;53.058;9.028;2023-02-28T19:04:30;2.60;99.90
24103;DHT22;12278;53.058;9.028;2023-02-28T19:08:31;2.50;99.90
24103;DHT22;12278;53.058;9.028;2023-02-28T19:12:33;2.40;99.90
24103;DHT22;12278;53.058;9.028;2023-02-28T19:16:34;2.30;99.90
24103;DHT22;12278;53.058;9.028;2023-02-28T19:20:41;2.30;99.90
24103;DHT22;12278;53.058;9.028;2023-02-28T19:24:43;2.20;99.90
24103;DHT22;12278;53.058;9.028;2023-02-28T19:28:43;2.10;99.90
24103;DHT22;12278;53.058;9.028;2023-02-28T19:32:44;2.10;99.90
24103;DHT22;12278;53.058;9.028;2023-02-28T19:36:45;2.00;99.90
24103;DHT22;12278;53.058;9.028;2023-02-28T19:41:13;1.90;99.90
24103;DHT22;12278;53.058;9.028;2023-02-28T19:45:33;1.90;99.90
24103;DHT22;12278;53.058;9.028;2023-02-28T19:49:33;1.90;99.90
24103;DHT22;12278;53.058;9.028;2023-02-28T19:53:36;1.80;99.90
24103;DHT22;12278;53.058;9.028;2023-02-28T19:57:37;1.70;99.90
24103;DHT22;12278;53.058;9.028;2023-02-28T20:01:37;1.70;99.90
24103;DHT22;12278;53.058;9.028;2023-02-28T20:05:40;1.70;99.90
24103;DHT22;12278;53.058;9.028;2023-02-28T20:09:41;1.60;99.90
24103;DHT22;12278;53.058;9.028;2023-02-28T20:13:47;1.50;99.90
24103;DHT22;12278;53.058;9.028;2023-02-28T20:17:47;1.50;99.90
24103;DHT22;12278;53.058;9.028;2023-02-28T20:21:55;1.50;99.90
24103;DHT22;12278;53.058;9.028;2023-02-28T20:26:00;1.40;99.90
24103;DHT22;12278;53.058;9.028;2023-02-28T20:30:11;1.30;99.90
24103;DHT22;12278;53.058;9.028;2023-02-28T20:34:12;1.40;99.90
24103;DHT22;12278;53.058;9.028;2023-02-28T20:38:17;1.30;99.90
24103;DHT22;12278;53.058;9.028;2023-02-28T20:42:18;1.20;99.90
24103;DHT22;12278;53.058;9.028;2023-02-28T20:46:19;1.20;99.90
24103;DHT22;12278;53.058;9.028;2023-02-28T20:50:19;1.00;99.90
24103;DHT22;12278;53.058;9.028;2023-02-28T20:54:20;1.00;99.90
24103;DHT22;12278;53.058;9.028;2023-02-28T20:58:21;0.90;99.90
24103;DHT22;12278;53.058;9.028;2023-02-28T21:02:21;0.90;99.90
24103;DHT22;12278;53.058;9.028;2023-02-28T21:06:56;0.90;99.90
24103;DHT22;12278;53.058;9.028;2023-02-28T21:10:57;0.80;99.90
24103;DHT22;12278;53.058;9.028;2023-02-28T21:15:04;0.80;99.90
24103;DHT22;12278;53.058;9.028;2023-02-28T21:19:05;0.80;99.90
24103;DHT22;12278;53.058;9.028;2023-02-28T21:23:09;0.70;99.90
24103;DHT22;12278;53.058;9.028;2023-02-28T21:27:09;0.70;99.90
24103;DHT22;12278;53.058;9.028;2023-02-28T21:31:13;0.70;99.90
24103;DHT22;12278;53.058;9.028;2023-02-28T21:35:20;0.60;99.90
24103;DHT22;12278;53.058;9.028;2023-02-28T21:39:24;0.60;99.90
24103;DHT22;12278;53.058;9.028;2023-02-28T21:43:25;0.50;99.90
24103;DHT22;12278;53.058;9.028;2023-02-28T21:47:27;0.50;99.90
24103;DHT22;12278;53.058;9.028;2023-02-28T21:51:39;0.30;99.90
24103;DHT22;12278;53.058;9.028;2023-02-28T21:55:39;0.30;99.90
24103;DHT22;12278;53.058;9.028;2023-02-28T21:59:43;0.30;99.90
24103;DHT22;12278;53.058;9.028;2023-02-28T22:03:46;0.20;99.90
24103;DHT22;12278;53.058;9.028;2023-02-28T22:07:47;0.20;99.90
24103;DHT22;12278;53.058;9.028;2023-02-28T22:11:48;0.20;99.90
24103;DHT22;12278;53.058;9.028;2023-02-28T22:15:50;0.20;99.90
24103;DHT22;12278;53.058;9.028;2023-02-28T22:19:50;0.20;99.90
24103;DHT22;12278;53.058;9.028;2023-02-28T22:23:51;0.20;99.90
24103;DHT22;12278;53.058;9.028;2023-02-28T22:27:52;0.10;99.90
24103;DHT22;12278;53.058;9.028;2023-02-28T22:36:49;0.00;99.90
24103;DHT22;12278;53.058;9.028;2023-02-28T22:40:50;0.00;99.90
24103;DHT22;12278;53.058;9.028;2023-02-28T22:44:50;-0.20;99.90
24103;DHT22;12278;53.058;9.028;2023-02-28T22:49:03;-0.10;99.90
24103;DHT22;12278;53.058;9.028;2023-02-28T22:53:04;-0.20;99.90
24103;DHT22;12278;53.058;9.028;2023-02-28T22:57:05;-0.30;99.90
24103;DHT22;12278;53.058;9.028;2023-02-28T23:01:11;-0.30;99.90
24103;DHT22;12278;53.058;9.028;2023-02-28T23:05:13;-0.30;99.90
24103;DHT22;12278;53.058;9.028;2023-02-28T23:09:16;-0.30;99.90
24103;DHT22;12278;53.058;9.028;2023-02-28T23:13:18;-0.30;99.90
24103;DHT22;12278;53.058;9.028;2023-02-28T23:17:19;-0.30;99.90
24103;DHT22;12278;53.058;9.028;2023-02-28T23:21:20;-0.40;99.90
24103;DHT22;12278;53.058;9.028;2023-02-28T23:25:21;-0.40;99.90
24103;DHT22;12278;53.058;9.028;2023-02-28T23:29:39;-0.40;99.90
24103;DHT22;12278;53.058;9.028;2023-02-28T23:33:39;-0.50;99.90
24103;DHT22;12278;53.058;9.028;2023-02-28T23:37:40;-0.60;99.90
24103;DHT22;12278;53.058;9.028;2023-02-28T23:41:42;-0.60;99.90
24103;DHT22;12278;53.058;9.028;2023-02-28T23:45:53;-0.60;99.90
24103;DHT22;12278;53.058;9.028;2023-02-28T23:49:54;-0.60;99.90
24103;DHT22;12278;53.058;9.028;2023-02-28T23:53:55;-0.60;99.90
24103;DHT22;12278;53.058;9.028;2023-02-28T23:57:55;-0.70;99.90
